createdAt,value
2023-05-28T00:01:56.095Z,3.70
2023-05-28T00:04:23.301Z,3.83
2023-05-28T00:06:52.113Z,3.88
2023-05-28T00:09:18.691Z,4.95
2023-05-28T00:11:45.856Z,3.53
2023-05-28T00:14:12.559Z,3.70
2023-05-28T00:16:39.085Z,5.07
2023-05-28T00:19:06.770Z,3.65
2023-05-28T00:21:35.223Z,3.65
2023-05-28T00:24:01.935Z,4.00
2023-05-28T00:26:31.112Z,3.80
2023-05-28T00:29:00.318Z,4.07
2023-05-28T00:31:26.953Z,3.45
2023-05-28T00:33:55.246Z,3.80
2023-05-28T00:36:22.190Z,3.22
2023-05-28T00:38:48.729Z,3.77
2023-05-28T00:41:23.629Z,3.45
2023-05-28T00:43:51.120Z,4.57
2023-05-28T00:46:20.248Z,3.67
2023-05-28T00:48:47.463Z,4.20
2023-05-28T00:51:15.298Z,3.30
2023-05-28T00:53:45.365Z,3.75
2023-05-28T00:56:13.620Z,3.42
2023-05-28T00:58:44.715Z,3.88
2023-05-28T01:01:11.656Z,3.75
2023-05-28T01:03:43.474Z,4.90
2023-05-28T01:06:14.989Z,4.32
2023-05-28T01:08:43.012Z,4.20
2023-05-28T01:11:15.061Z,2.65
2023-05-28T01:13:44.750Z,3.70
2023-05-28T01:16:12.562Z,3.83
2023-05-28T01:18:45.808Z,3.97
2023-05-28T01:21:12.985Z,3.67
2023-05-28T01:23:48.632Z,3.85
2023-05-28T01:26:21.640Z,3.75
2023-05-28T01:28:50.880Z,3.93
2023-05-28T01:31:18.298Z,3.42
2023-05-28T01:33:46.797Z,4.13
2023-05-28T01:36:32.059Z,3.97
2023-05-28T01:39:03.495Z,3.78
2023-05-28T01:41:32.307Z,4.20
2023-05-28T01:44:00.924Z,3.50
2023-05-28T01:46:28.106Z,3.83
2023-05-28T01:48:56.711Z,3.50
2023-05-28T01:51:24.572Z,3.70
2023-05-28T01:53:51.993Z,4.07
2023-05-28T01:56:18.998Z,4.78
2023-05-28T01:58:49.852Z,3.42
2023-05-28T02:01:26.180Z,4.68
2023-05-28T02:03:54.941Z,4.03
2023-05-28T02:06:23.006Z,3.70
2023-05-28T02:08:49.925Z,3.40
2023-05-28T02:11:16.754Z,3.72
2023-05-28T02:13:43.411Z,4.40
2023-05-28T02:16:13.094Z,3.30
2023-05-28T02:18:40.801Z,4.03
2023-05-28T02:21:07.497Z,4.30
2023-05-28T02:23:34.096Z,4.65
2023-05-28T02:26:02.224Z,4.43
2023-05-28T02:28:29.833Z,4.65
2023-05-28T02:30:56.685Z,3.60
2023-05-28T02:33:23.283Z,4.40
2023-05-28T02:35:49.836Z,3.95
2023-05-28T02:38:18.998Z,5.10
2023-05-28T02:40:47.515Z,3.78
2023-05-28T02:43:14.053Z,5.17
2023-05-28T02:45:40.919Z,3.53
2023-05-28T02:48:08.049Z,3.67
2023-05-28T02:50:34.695Z,3.70
2023-05-28T02:53:01.870Z,5.05
2023-05-28T02:55:28.490Z,3.80
2023-05-28T02:57:56.067Z,3.85
2023-05-28T03:00:23.379Z,3.72
2023-05-28T03:02:50.261Z,4.20
2023-05-28T03:05:16.899Z,4.05
2023-05-28T03:07:43.483Z,4.23
2023-05-28T03:10:11.558Z,3.45
2023-05-28T03:12:38.272Z,4.70
2023-05-28T03:15:05.236Z,3.80
2023-05-28T03:17:32.896Z,4.15
2023-05-28T03:19:59.913Z,3.63
2023-05-28T03:22:27.029Z,3.55
2023-05-28T03:24:54.125Z,3.35
2023-05-28T03:27:21.085Z,4.28
2023-05-28T03:29:47.672Z,4.15
2023-05-28T03:32:17.251Z,4.03
2023-05-28T03:34:44.099Z,3.75
2023-05-28T03:37:10.694Z,4.18
2023-05-28T03:39:37.526Z,4.45
2023-05-28T03:42:04.560Z,3.95
2023-05-28T03:44:31.117Z,3.90
2023-05-28T03:46:58.417Z,4.45
2023-05-28T03:49:25.276Z,3.88
2023-05-28T03:51:51.745Z,3.97
2023-05-28T03:54:18.523Z,4.18
2023-05-28T03:56:45.378Z,4.27
2023-05-28T03:59:12.130Z,3.85
2023-05-28T04:01:38.958Z,4.82
2023-05-28T04:04:07.162Z,4.53
2023-05-28T04:06:34.239Z,4.38
2023-05-28T04:09:01.945Z,3.70
2023-05-28T04:11:31.082Z,4.40
2023-05-28T04:13:58.455Z,4.03
2023-05-28T04:16:25.104Z,3.97
2023-05-28T04:18:52.245Z,4.35
2023-05-28T04:21:19.711Z,4.43
2023-05-28T04:23:49.786Z,4.15
2023-05-28T04:26:17.511Z,4.57
2023-05-28T04:28:44.770Z,3.90
2023-05-28T04:31:11.691Z,4.30
2023-05-28T04:33:38.525Z,4.47
2023-05-28T04:36:05.961Z,3.88
2023-05-28T04:38:34.557Z,4.65
2023-05-28T04:41:01.383Z,4.60
2023-05-28T04:43:30.875Z,4.70
2023-05-28T04:46:00.402Z,3.87
2023-05-28T04:48:28.225Z,4.03
2023-05-28T04:50:56.861Z,3.63
2023-05-28T04:53:23.495Z,3.72
2023-05-28T04:55:50.301Z,4.75
2023-05-28T04:58:18.284Z,4.47
2023-05-28T05:00:46.149Z,4.53
2023-05-28T05:03:13.543Z,4.30
2023-05-28T05:05:44.039Z,3.60
2023-05-28T05:08:14.254Z,3.47
2023-05-28T05:10:41.403Z,3.70
2023-05-28T05:13:08.160Z,3.83
2023-05-28T05:15:35.169Z,3.25
2023-05-28T05:18:01.997Z,3.42
2023-05-28T05:20:29.058Z,4.05
2023-05-28T05:22:58.133Z,4.30
2023-05-28T05:25:24.999Z,3.80
2023-05-28T05:27:52.171Z,3.72
2023-05-28T05:30:24.862Z,3.55
2023-05-28T05:32:51.562Z,3.50
2023-05-28T05:35:20.879Z,3.80
2023-05-28T05:37:50.335Z,3.60
2023-05-28T05:40:16.906Z,3.53
2023-05-28T05:42:45.577Z,3.60
2023-05-28T05:45:12.297Z,3.78
2023-05-28T05:47:39.337Z,3.90
2023-05-28T05:50:06.888Z,4.22
2023-05-28T05:52:34.238Z,3.85
2023-05-28T05:55:05.177Z,3.70
2023-05-28T05:57:33.427Z,3.80
2023-05-28T06:00:00.299Z,3.97
2023-05-28T06:02:29.113Z,4.00
2023-05-28T06:04:56.688Z,4.10
2023-05-28T06:07:23.768Z,4.55
2023-05-28T06:09:53.336Z,3.47
2023-05-28T06:12:21.705Z,3.77
2023-05-28T06:14:48.634Z,3.83
2023-05-28T06:17:16.199Z,4.00
2023-05-28T06:19:43.174Z,3.63
2023-05-28T06:22:13.385Z,3.92
2023-05-28T06:24:41.245Z,4.07
2023-05-28T06:27:11.779Z,4.05
2023-05-28T06:29:38.380Z,5.00
2023-05-28T06:32:05.290Z,4.40
2023-05-28T06:34:35.989Z,4.35
2023-05-28T06:37:15.300Z,5.23
2023-05-28T06:39:54.549Z,3.90
2023-05-28T06:42:33.751Z,4.10
2023-05-28T06:45:04.006Z,3.67
2023-05-28T06:47:30.950Z,4.70
2023-05-28T06:50:29.935Z,3.90
2023-05-28T06:52:57.997Z,3.22
2023-05-28T06:55:33.664Z,4.32
2023-05-28T06:58:08.815Z,4.40
2023-05-28T07:01:13.104Z,3.97
2023-05-28T07:06:57.485Z,4.38
2023-05-28T07:08:37.715Z,4.03
2023-05-28T07:09:30.850Z,3.67
2023-05-28T07:11:57.717Z,3.38
2023-05-28T07:14:34.092Z,4.57
2023-05-28T07:17:01.605Z,4.93
2023-05-28T07:19:46.654Z,4.70
2023-05-28T07:22:14.054Z,4.05
2023-05-28T07:24:59.654Z,4.43
2023-05-28T07:27:26.770Z,4.78
2023-05-28T07:30:31.058Z,4.90
2023-05-28T07:33:09.699Z,3.80
2023-05-28T07:35:46.190Z,3.97
2023-05-28T07:41:14.314Z,3.85
2023-05-28T07:43:48.394Z,4.07
2023-05-28T07:46:20.758Z,3.55
2023-05-28T07:48:47.632Z,4.10
2023-05-28T07:51:15.166Z,4.07
2023-05-28T07:53:41.722Z,3.47
2023-05-28T07:56:34.235Z,3.53
2023-05-28T08:00:03.968Z,4.65
2023-05-28T08:02:46.035Z,3.92
2023-05-28T08:05:16.595Z,3.22
2023-05-28T08:07:48.124Z,3.97
2023-05-28T08:10:15.003Z,3.50
2023-05-28T08:12:47.735Z,3.75
2023-05-28T08:15:16.590Z,3.17
2023-05-28T08:17:43.945Z,3.90
2023-05-28T08:20:12.827Z,3.08
2023-05-28T08:22:40.157Z,3.00
2023-05-28T08:25:07.316Z,3.65
2023-05-28T08:27:42.234Z,3.40
2023-05-28T08:30:10.264Z,4.22
2023-05-28T08:32:36.930Z,3.55
2023-05-28T08:35:08.629Z,2.70
2023-05-28T08:37:38.161Z,3.30
2023-05-28T08:40:10.233Z,3.22
2023-05-28T08:42:42.664Z,4.43
2023-05-28T08:45:09.568Z,3.17
2023-05-28T08:47:38.640Z,3.10
2023-05-28T08:50:07.711Z,2.92
2023-05-28T08:52:35.461Z,3.95
2023-05-28T08:55:02.605Z,3.35
2023-05-28T08:57:30.947Z,3.30
2023-05-28T08:59:59.570Z,3.40
2023-05-28T09:02:26.958Z,3.08
2023-05-28T09:05:01.995Z,3.25
2023-05-28T09:07:28.696Z,3.83
2023-05-28T09:09:57.853Z,3.33
2023-05-28T09:12:25.623Z,3.77
2023-05-28T09:14:54.684Z,3.55
2023-05-28T09:17:38.689Z,3.50
2023-05-28T09:20:15.513Z,3.97
2023-05-28T09:22:42.641Z,3.08
2023-05-28T09:25:09.763Z,3.17
2023-05-28T09:27:37.860Z,3.38
2023-05-28T09:30:14.545Z,3.38
2023-05-28T09:32:44.165Z,3.10
2023-05-28T09:35:11.971Z,3.03
2023-05-28T09:37:42.261Z,3.60
2023-05-28T09:40:12.891Z,2.95
2023-05-28T09:42:45.288Z,3.45
2023-05-28T09:45:12.788Z,3.83
2023-05-28T09:47:44.816Z,3.28
2023-05-28T09:50:12.515Z,3.00
2023-05-28T09:52:41.406Z,3.97
2023-05-28T09:55:11.354Z,3.35
2023-05-28T09:57:46.283Z,3.33
2023-05-28T10:00:24.640Z,3.28
2023-05-28T10:03:16.155Z,3.30
2023-05-28T10:05:52.166Z,2.85
2023-05-28T10:08:23.515Z,3.33
2023-05-28T10:10:55.449Z,3.17
2023-05-28T10:13:26.594Z,2.92
2023-05-28T10:15:54.671Z,3.30
2023-05-28T10:18:26.396Z,3.08
2023-05-28T10:20:56.847Z,2.97
2023-05-28T10:23:25.375Z,3.42
2023-05-28T10:25:58.131Z,5.45
2023-05-28T10:28:24.896Z,3.50
2023-05-28T10:31:16.390Z,3.30
2023-05-28T10:33:44.949Z,3.97
2023-05-28T10:36:15.990Z,2.53
2023-05-28T10:39:01.692Z,3.10
2023-05-28T10:41:33.436Z,3.17
2023-05-28T10:44:07.302Z,2.53
2023-05-28T10:46:42.570Z,3.05
2023-05-28T10:49:17.620Z,3.38
2023-05-28T10:52:04.590Z,3.28
2023-05-28T10:54:31.501Z,2.43
2023-05-28T10:57:19.371Z,2.58
2023-05-28T11:00:17.085Z,2.30
2023-05-28T11:03:44.809Z,2.95
2023-05-28T11:06:14.301Z,2.50
2023-05-28T11:08:55.758Z,2.50
2023-05-28T11:11:23.717Z,2.28
2023-05-28T11:13:50.377Z,2.60
2023-05-28T11:16:24.212Z,2.50
2023-05-28T11:22:09.533Z,3.00
2023-05-28T11:30:57.408Z,1.95
2023-05-28T11:33:39.118Z,2.65
2023-05-28T11:36:09.654Z,2.30
2023-05-28T11:38:37.009Z,2.45
2023-05-28T11:41:05.094Z,2.65
2023-05-28T11:43:34.135Z,2.80
2023-05-28T11:46:07.796Z,2.58
2023-05-28T11:48:39.830Z,2.93
2023-05-28T11:51:06.646Z,3.60
2023-05-28T11:53:47.404Z,3.28
2023-05-28T11:56:15.098Z,2.35
2023-05-28T11:58:51.074Z,2.15
2023-05-28T12:01:20.748Z,2.10
2023-05-28T12:03:47.695Z,2.17
2023-05-28T12:06:23.109Z,3.28
2023-05-28T12:09:05.682Z,2.75
2023-05-28T12:11:49.775Z,2.65
2023-05-28T12:14:22.488Z,2.13
2023-05-28T12:16:53.032Z,2.72
2023-05-28T12:19:19.665Z,2.95
2023-05-28T12:21:49.054Z,2.40
2023-05-28T12:24:16.647Z,2.58
2023-05-28T12:26:43.763Z,2.63
2023-05-28T12:29:11.080Z,2.40
2023-05-28T12:31:37.975Z,3.08
2023-05-28T12:34:04.625Z,3.03
2023-05-28T12:36:41.657Z,2.53
2023-05-28T12:39:08.602Z,2.50
2023-05-28T12:41:37.838Z,2.65
2023-05-28T12:44:10.565Z,2.70
2023-05-28T12:46:37.528Z,3.53
2023-05-28T12:49:04.476Z,2.70
2023-05-28T12:51:37.484Z,3.83
2023-05-28T12:54:04.262Z,2.13
2023-05-28T12:56:30.967Z,2.75
2023-05-28T12:58:57.795Z,2.03
2023-05-28T13:01:27.190Z,2.67
2023-05-28T13:03:54.199Z,2.60
2023-05-28T13:06:21.089Z,2.67
2023-05-28T13:08:47.944Z,2.65
2023-05-28T13:11:17.768Z,3.17
2023-05-28T13:13:46.919Z,2.88
2023-05-28T13:16:19.045Z,3.40
2023-05-28T13:18:47.182Z,2.42
2023-05-28T13:21:17.216Z,3.58
2023-05-28T13:23:43.706Z,3.92
2023-05-28T13:26:10.748Z,2.75
2023-05-28T13:28:37.539Z,2.60
2023-05-28T13:31:06.851Z,2.90
2023-05-28T13:33:33.669Z,2.78
2023-05-28T13:36:00.838Z,2.15
2023-05-28T13:38:28.040Z,2.63
2023-05-28T13:40:56.839Z,2.80
2023-05-28T13:43:23.850Z,2.63
2023-05-28T13:45:51.597Z,2.78
2023-05-28T13:48:22.493Z,2.28
2023-05-28T13:50:50.052Z,2.88
2023-05-28T13:53:18.160Z,2.43
2023-05-28T13:55:45.225Z,2.50
2023-05-28T13:58:12.172Z,3.05
2023-05-28T14:00:39.720Z,3.05
2023-05-28T14:03:07.191Z,2.67
2023-05-28T14:05:36.474Z,2.53
2023-05-28T14:08:03.966Z,2.45
2023-05-28T14:10:34.844Z,2.72
2023-05-28T14:13:01.724Z,2.70
2023-05-28T14:15:28.851Z,2.92
2023-05-28T14:17:55.629Z,2.87
2023-05-28T14:20:24.636Z,2.30
2023-05-28T14:22:56.849Z,2.28
2023-05-28T14:25:24.756Z,2.63
2023-05-28T14:28:00.099Z,2.88
2023-05-28T14:30:47.891Z,2.20
2023-05-28T14:33:14.862Z,3.05
2023-05-28T14:35:42.764Z,3.40
2023-05-28T14:38:09.387Z,2.72
2023-05-28T14:40:36.291Z,2.10
2023-05-28T14:43:02.859Z,2.73
2023-05-28T14:45:29.770Z,2.42
2023-05-28T14:48:05.708Z,1.90
2023-05-28T14:50:32.382Z,2.60
2023-05-28T14:52:59.601Z,2.00
2023-05-28T14:55:29.108Z,2.00
2023-05-28T14:57:58.622Z,2.53
2023-05-28T15:00:25.816Z,2.20
2023-05-28T15:02:52.714Z,3.78
2023-05-28T15:05:21.111Z,3.95
2023-05-28T15:07:49.290Z,7.83
2023-05-28T15:10:16.854Z,3.03
2023-05-28T15:12:43.800Z,2.22
2023-05-28T15:15:11.294Z,2.20
2023-05-28T15:17:38.200Z,1.85
2023-05-28T15:20:05.976Z,2.27
2023-05-28T15:22:32.907Z,2.55
2023-05-28T15:25:00.015Z,2.55
2023-05-28T15:27:26.694Z,2.55
2023-05-28T15:29:53.488Z,2.38
2023-05-28T15:32:20.840Z,7.27
2023-05-28T15:34:47.809Z,2.95
2023-05-28T15:37:14.891Z,3.80
2023-05-28T15:39:45.298Z,3.30
2023-05-28T15:42:11.935Z,3.33
2023-05-28T15:44:39.226Z,2.77
2023-05-28T15:47:07.499Z,2.28
2023-05-28T15:49:36.897Z,2.03
2023-05-28T15:52:05.647Z,2.80
2023-05-28T15:54:32.373Z,3.80
2023-05-28T15:57:01.596Z,3.03
2023-05-28T15:59:29.591Z,2.35
2023-05-28T16:01:59.385Z,3.47
2023-05-28T16:04:29.779Z,2.45
2023-05-28T16:06:56.656Z,5.47
2023-05-28T16:09:27.066Z,3.80
2023-05-28T16:11:56.372Z,5.15
2023-05-28T16:14:24.149Z,5.88
2023-05-28T16:16:54.512Z,3.90
2023-05-28T16:19:22.195Z,3.35
2023-05-28T16:21:49.232Z,3.03
2023-05-28T16:24:18.364Z,1.35
2023-05-28T16:26:49.811Z,1.55
2023-05-28T16:29:21.319Z,2.13
2023-05-28T16:31:48.834Z,11.00
2023-05-28T16:34:16.501Z,2.70
2023-05-28T16:36:43.604Z,3.08
2023-05-28T16:39:10.913Z,1.73
2023-05-28T16:41:37.620Z,1.73
2023-05-28T16:44:04.493Z,2.00
2023-05-28T16:46:31.349Z,1.00
2023-05-28T16:49:01.809Z,1.58
2023-05-28T16:51:38.962Z,1.13
2023-05-28T16:55:21.877Z,2.03
2023-05-28T16:58:00.510Z,5.05
2023-05-28T17:01:06.010Z,3.07
2023-05-28T17:04:41.384Z,2.13
2023-05-28T17:07:11.101Z,1.35
2023-05-28T17:09:47.427Z,0.98
2023-05-28T17:12:17.572Z,1.05
2023-05-28T17:14:44.515Z,1.43
2023-05-28T17:17:20.158Z,1.08
2023-05-28T17:19:49.640Z,1.20
2023-05-28T17:22:16.599Z,1.10
2023-05-28T17:24:43.328Z,1.00
2023-05-28T17:27:16.141Z,1.73
2023-05-28T17:29:52.674Z,1.17
2023-05-28T17:32:19.617Z,1.55
2023-05-28T17:37:32.418Z,0.88
2023-05-28T17:39:59.315Z,2.07
2023-05-28T17:42:52.874Z,0.82
2023-05-28T17:45:21.114Z,1.42
2023-05-28T17:47:48.038Z,3.40
2023-05-28T17:50:17.142Z,1.50
2023-05-28T17:52:47.863Z,1.03
2023-05-28T17:55:22.899Z,1.50
2023-05-28T17:57:54.248Z,1.17
2023-05-28T18:00:22.763Z,1.35
2023-05-28T18:03:00.122Z,1.13
2023-05-28T18:05:28.933Z,1.10
2023-05-28T18:07:57.708Z,1.20
2023-05-28T18:10:28.783Z,1.27
2023-05-28T18:12:56.637Z,1.60
2023-05-28T18:15:31.877Z,1.45
2023-05-28T18:17:59.332Z,1.87
2023-05-28T18:20:27.022Z,1.70
2023-05-28T18:22:53.784Z,1.30
2023-05-28T18:25:22.661Z,1.73
2023-05-28T18:27:51.276Z,1.40
2023-05-28T18:30:21.547Z,1.50
2023-05-28T18:32:49.127Z,2.05
2023-05-28T18:35:16.316Z,2.20
2023-05-28T18:37:43.062Z,1.70
2023-05-28T18:40:12.432Z,2.40
2023-05-28T18:42:39.678Z,3.47
2023-05-28T18:45:08.605Z,1.48
2023-05-28T18:47:37.000Z,2.28
2023-05-28T18:50:08.476Z,2.22
2023-05-28T18:52:41.476Z,1.83
2023-05-28T18:55:08.996Z,2.30
2023-05-28T18:57:36.374Z,2.97
2023-05-28T19:00:08.924Z,3.13
2023-05-28T19:02:38.021Z,2.05
2023-05-28T19:05:07.807Z,3.67
2023-05-28T19:07:36.146Z,2.17
2023-05-28T19:10:06.856Z,2.10
2023-05-28T19:12:33.586Z,2.67
2023-05-28T19:15:04.486Z,2.08
2023-05-28T19:17:32.010Z,2.58
2023-05-28T19:20:00.441Z,2.63
2023-05-28T19:22:30.674Z,2.67
2023-05-28T19:25:09.020Z,2.92
2023-05-28T19:27:40.837Z,2.38
2023-05-28T19:30:14.428Z,2.83
2023-05-28T19:32:44.344Z,2.30
2023-05-28T19:35:19.682Z,2.40
2023-05-28T19:37:50.198Z,2.63
2023-05-28T19:40:21.633Z,2.53
2023-05-28T19:42:59.092Z,2.13
2023-05-28T19:45:28.824Z,2.87
2023-05-28T19:47:59.257Z,2.50
2023-05-28T19:50:35.364Z,2.75
2023-05-28T19:53:02.113Z,2.88
2023-05-28T19:55:34.212Z,2.20
2023-05-28T19:58:01.343Z,2.57
2023-05-28T20:00:29.430Z,2.80
2023-05-28T20:02:59.137Z,3.10
2023-05-28T20:05:28.084Z,2.95
2023-05-28T20:08:04.596Z,2.90
2023-05-28T20:10:34.341Z,2.30
2023-05-28T20:13:04.874Z,3.20
2023-05-28T20:15:34.860Z,2.90
2023-05-28T20:18:10.236Z,2.58
2023-05-28T20:20:42.926Z,2.45
2023-05-28T20:23:09.597Z,1.80
2023-05-28T20:25:38.821Z,1.80
2023-05-28T20:28:06.060Z,2.15
2023-05-28T20:30:32.660Z,2.28
2023-05-28T20:32:59.679Z,2.53
2023-05-28T20:35:29.958Z,1.87
2023-05-28T20:38:04.866Z,1.77
2023-05-28T20:40:33.557Z,2.58
2023-05-28T20:43:01.743Z,1.98
2023-05-28T20:45:28.339Z,2.22
2023-05-28T20:48:01.041Z,1.60
2023-05-28T20:50:30.904Z,2.10
2023-05-28T20:53:01.191Z,2.13
2023-05-28T20:55:29.893Z,2.50
2023-05-28T20:57:56.586Z,2.45
2023-05-28T21:00:29.103Z,2.50
2023-05-28T21:03:00.259Z,2.47
2023-05-28T21:05:27.449Z,2.45
2023-05-28T21:07:54.678Z,2.40
2023-05-28T21:10:21.616Z,1.63
2023-05-28T21:12:51.570Z,1.90
2023-05-28T21:15:19.063Z,2.45
2023-05-28T21:17:50.824Z,2.08
2023-05-28T21:20:19.364Z,2.42
2023-05-28T21:22:50.561Z,2.17
2023-05-28T21:25:28.785Z,1.83
2023-05-28T21:27:58.703Z,1.55
2023-05-28T21:30:30.024Z,2.20
2023-05-28T21:32:57.183Z,2.00
2023-05-28T21:35:26.865Z,2.22
2023-05-28T21:37:55.337Z,1.80
2023-05-28T21:40:23.602Z,2.15
2023-05-28T21:43:02.855Z,2.15
2023-05-28T21:45:37.817Z,2.00
2023-05-28T21:48:07.518Z,1.42
2023-05-28T21:50:36.031Z,1.13
2023-05-28T21:53:05.001Z,1.70
2023-05-28T21:55:34.589Z,1.83
2023-05-28T21:58:04.158Z,1.40
2023-05-28T22:00:32.242Z,1.15
2023-05-28T22:03:02.896Z,1.40
2023-05-28T22:05:32.577Z,1.65
2023-05-28T22:08:06.310Z,1.08
2023-05-28T22:10:40.532Z,1.20
2023-05-28T22:13:07.270Z,0.80
2023-05-28T22:15:39.930Z,1.20
2023-05-28T22:18:07.017Z,0.63
2023-05-28T22:20:42.767Z,2.17
2023-05-28T22:23:11.658Z,1.63
2023-05-28T22:25:42.277Z,0.90
2023-05-28T22:28:08.956Z,1.57
2023-05-28T22:30:40.942Z,0.82
2023-05-28T22:33:12.215Z,0.70
2023-05-28T22:35:40.613Z,2.00
2023-05-28T22:38:21.967Z,0.77
2023-05-28T22:40:55.508Z,0.93
2023-05-28T22:43:22.084Z,1.42
2023-05-28T22:45:51.878Z,0.65
2023-05-28T22:48:19.055Z,1.05
2023-05-28T22:50:45.835Z,0.95
2023-05-28T22:53:12.931Z,0.80
2023-05-28T22:55:41.904Z,0.88
2023-05-28T22:58:09.278Z,1.50
2023-05-28T23:00:36.384Z,1.98
2023-05-28T23:03:09.151Z,1.08
2023-05-28T23:05:36.034Z,1.30
2023-05-28T23:08:02.732Z,0.80
2023-05-28T23:10:31.875Z,1.42
2023-05-28T23:12:59.946Z,1.20
2023-05-28T23:15:28.026Z,1.00
2023-05-28T23:17:55.320Z,0.67
2023-05-28T23:20:21.964Z,1.10
2023-05-28T23:22:48.928Z,1.13
2023-05-28T23:25:16.402Z,1.05
2023-05-28T23:27:42.894Z,1.02
2023-05-28T23:30:10.972Z,0.67
2023-05-28T23:32:37.961Z,1.02
2023-05-28T23:35:05.822Z,0.93
2023-05-28T23:37:33.421Z,0.90
2023-05-28T23:40:00.556Z,1.00
2023-05-28T23:42:29.774Z,0.97
2023-05-28T23:44:57.408Z,1.13
2023-05-28T23:47:24.183Z,1.10
2023-05-28T23:49:51.675Z,1.00
2023-05-28T23:52:18.537Z,1.65
2023-05-28T23:54:48.796Z,0.70
2023-05-28T23:57:16.356Z,1.35
2023-05-28T23:59:43.008Z,0.73
